FW6760 Weather Reports


Display with metric or nautical units.
time (UTC)temp
F
wind
direction
speed
MPH
gust
MPH
rain 1hr
in
rain 24hr
in
rain mn
in
humidity
%
barometer
mb
20230130075305 38 279 8.0 10.0 0.03 0.24 0.06 83 1019.4
20230130074304 38 245 6.0 9.0 0.03 0.23 0.05 83 1019.6
20230130073403 38 292 3.0 5.0 0.03 0.23 0.05 83 1019.5
20230130071406 38 321 5.0 8.0 0.03 0.22 0.04 80 1019.3
20230130070404 39 327 8.0 13.0 0.02 0.21 0.03 80 1019.0
20230130065405 39 304 6.0 9.0 0.02 0.21 0.03 79 1019.1
20230130064405 39 273 8.0 15.0 0.01 0.20 0.02 79 1019.1
20230130063503 39 308 2.0 3.0 0.01 0.20 0.02 79 1019.0
20230130062506 39 315 1.0 3.0 0.01 0.20 0.02 80 1018.8
20230130060505 38 277 4.0 7.0 0.01 0.19 0.01 79 1018.5
20230130055505 37 292 1.0 3.0 0.01 0.19 0.01 79 1018.5
20230130054505 37 180 0.0 0.0 0.01 0.19 0.01 80 1018.6
20230130053603 37 180 0.0 0.0 0.01 0.19 0.01 79 1018.9
20230130052703 37 213 1.0 2.0 0.01 0.19 0.01 79 1018.5
20230130051705 36 286 1.0 2.0 0.01 0.19 0.01 79 1018.5
20230130050705 36 270 0.0 0.0 0.01 0.19 0.01 79 1018.5
20230130045713 37 292 0.0 1.0 0.01 0.18 0.18 79 1018.6
20230130044813 37 292 0.0 0.0 0.01 0.18 0.18 77 1018.5
20230130043813 37 315 0.0 0.0 0.01 0.18 0.18 77 1018.7
20230130041813 36 180 0.0 0.0 0.01 0.18 0.18 79 1019.1
20230130040815 36 205 0.0 0.0 0.01 0.18 0.18 79 1019.2
20230130035814 36 97 0.0 0.0 0.00 0.17 0.17 78 1018.9
20230130034913 36 337 0.0 0.0 0.01 0.17 0.17 79 1018.9
20230130033913 36 63 0.0 1.0 0.01 0.17 0.17 79 1018.7
20230130032915 36 315 0.0 0.0 0.01 0.17 0.17 78 1018.9
20230130031012 37 112 0.0 0.0 0.02 0.17 0.17 77 1018.7
20230130030014 38 202 0.0 1.0 0.02 0.17 0.17 76 1019.0
20230130025014 38 227 1.0 3.0 0.01 0.16 0.16 74 1018.9
20230130024014 38 231 2.0 4.0 0.02 0.16 0.16 75 1019.2
20230130022115 39 218 3.0 5.0 0.01 0.15 0.15 74 1018.7
20230130021116 39 233 4.0 6.0 0.01 0.15 0.15 74 1018.9
20230130020213 39 228 6.0 7.0 0.01 0.15 0.15 74 1018.7
20230130015213 39 221 2.0 5.0 0.02 0.15 0.15 73 1018.4
20230130013216 39 237 1.0 3.0 0.01 0.14 0.14 73 1018.4
20230130012313 39 256 4.0 6.0 0.01 0.14 0.14 74 1018.3
20230130011315 38 260 1.0 2.0 0.01 0.14 0.14 74 1018.3
20230130010413 38 315 0.0 2.0 0.01 0.14 0.14 74 1018.4
20230130005415 38 337 3.0 4.0 0.00 0.13 0.13 75 1018.5
20230130004413 38 315 2.0 3.0 0.00 0.13 0.13 75 1018.3
20230130002513 38 112 0.0 0.0 0.01 0.13 0.13 74 1018.5
20230130001531 39 145 2.0 3.0 0.01 0.13 0.13 74 1018.5
20230130000513 38 150 1.0 2.0 0.02 0.13 0.13 74 1018.5
20230129234513 38 225 2.0 3.0 0.02 0.13 0.13 73 1018.7
20230129232613 39 244 0.0 0.0 0.02 0.12 0.12 72 1018.5
20230129231613 39 202 0.0 0.0 0.02 0.12 0.12 71 1018.5
20230129230713 39 225 0.0 1.0 0.01 0.11 0.11 71 1018.5
20230129230613 39 225 3.0 8.0 0.01 0.11 0.11 70 1018.5
20230129225614 39 195 2.0 5.0 0.02 0.11 0.11 70 1018.6
20230129224613 39 215 3.0 4.0 0.02 0.11 0.11 70 1018.5
20230129223613 39 232 2.0 4.0 0.01 0.10 0.10 70 1018.4
20230129222614 38 221 1.0 2.0 0.01 0.10 0.10 73 1018.4
20230129215715 38 225 0.0 0.0 0.02 0.10 0.09 74 1018.4
20230129214714 38 225 0.0 1.0 0.02 0.10 0.09 75 1018.4
20230129213813 38 135 0.0 1.0 0.02 0.10 0.09 74 1018.2
20230129211914 37 192 0.0 0.0 0.02 0.09 0.08 78 1018.0
20230129210915 37 111 1.0 2.0 0.03 0.10 0.08 77 1018.3
20230129210013 37 165 0.0 2.0 0.03 0.09 0.07 78 1018.3
20230129205913 37 114 0.0 0.0 0.03 0.09 0.07 79 1018.3
20230129204014 37 135 0.0 0.0 0.04 0.10 0.07 77 1018.4
20230129203015 37 135 0.0 0.0 0.05 0.10 0.07 77 1018.4
20230129202113 38 135 0.0 0.0 0.04 0.10 0.06 76 1018.7
20230129201116 38 225 0.0 0.0 0.03 0.09 0.05 75 1018.5
20230129200212 38 225 0.0 0.0 0.02 0.09 0.04 76 1018.7
20230129195214 38 225 0.0 1.0 0.01 0.08 0.03 76 1018.9
20230129194217 38 225 2.0 3.0 0.01 0.09 0.03 76 1018.9
20230129193314 37 247 0.0 0.0 0.01 0.09 0.03 75 1018.7
20230129192315 36 247 0.0 1.0 0.00 0.09 0.02 76 1018.9
20230129185414 35 225 0.0 1.0 0.01 0.11 0.02 77 1019.2
20230129184415 36 225 1.0 2.0 0.01 0.11 0.02 76 1019.5
20230129183413 37 225 1.0 2.0 0.01 0.13 0.02 74 1019.7
20230129182413 37 225 1.0 2.0 0.01 0.14 0.02 73 1019.8
20230129181414 37 225 0.0 0.0 0.00 0.14 0.01 73 1020.1
20230129180413 37 225 0.0 0.0 0.00 0.15 0.01 73 1020.2
20230129174416 37 225 0.0 0.0 0.00 0.18 0.01 73 1020.6
20230129173514 37 202 0.0 0.0 0.00 0.18 0.01 74 1020.8
20230129172513 37 135 1.0 3.0 0.00 0.18 0.01 70 1021.2
20230129171515 37 202 0.0 0.0 0.00 0.18 0.01 71 1021.7
20230129170612 37 202 0.0 1.0 0.00 0.18 0.01 70 1021.7
20230129164613 37 90 0.0 1.0 0.01 0.18 0.01 71 1021.9
20230129163612 37 202 0.0 0.0 0.01 0.19 0.01 70 1022.1
20230129162613 37 135 0.0 0.0 0.01 0.19 0.01 70 1022.2
20230129161615 36 135 0.0 0.0 0.01 0.19 0.01 71 1022.7
20230129160613 36 112 0.0 0.0 0.01 0.19 0.01 71 1022.8
20230129154715 36 90 0.0 0.0 0.00 0.19 0.00 71 1023.1
20230129153715 36 180 0.0 1.0 0.00 0.19 0.00 73 1023.5
20230129152714 35 208 1.0 4.0 0.00 0.19 0.00 73 1023.7
20230129151712 36 135 1.0 2.0 0.00 0.19 0.00 70 1023.8
20230129145713 35 225 0.0 0.0 0.00 0.19 0.00 71 1023.7
20230129144714 34 225 0.0 0.0 0.00 0.19 0.00 72 1023.9
20230129143813 33 225 0.0 0.0 0.00 0.19 0.00 71 1023.8
20230129142912 32 225 0.0 1.0 0.00 0.19 0.00 72 1024.4
20230129141013 31 225 2.0 2.0 0.00 0.19 0.00 75 1023.5
20230129140013 31 225 0.0 0.0 0.00 0.19 0.00 74 1024.0
20230129135014 30 225 0.0 0.0 0.00 0.19 0.00 74 1024.5
20230129134013 29 225 0.0 0.0 0.00 0.19 0.00 77 1024.5
20230129133013 29 225 0.0 0.0 0.00 0.19 0.00 79 1024.7
20230129131114 28 225 0.0 0.0 0.00 0.19 0.00 80 1024.8
20230129130113 27 180 0.0 0.0 0.00 0.19 0.00 80 1024.8
20230129125115 27 180 0.0 0.0 0.00 0.19 0.00 80 1024.8
20230129124114 27 180 0.0 0.0 0.00 0.19 0.00 81 1024.9
20230129123114 27 292 0.0 0.0 0.00 0.19 0.00 79 1024.9
20230129122113 28 270 0.0 0.0 0.00 0.19 0.00 79 1025.1
20230129121113 27 307 1.0 1.0 0.00 0.19 0.00 79 1025.0
20230129120112 27 315 0.0 0.0 0.00 0.19 0.00 81 1025.2
20230129115114 27 315 0.0 0.0 0.00 0.19 0.00 80 1025.1
20230129114114 27 315 0.0 0.0 0.00 0.19 0.00 80 1025.3
20230129113115 27 315 0.0 1.0 0.00 0.19 0.00 82 1025.0
20230129112114 27 315 0.0 1.0 0.00 0.19 0.00 81 1025.1
20230129111116 27 315 0.0 0.0 0.00 0.19 0.00 81 1025.1
20230129110113 27 315 0.0 0.0 0.00 0.19 0.00 82 1025.1
20230129105113 26 315 0.0 0.0 0.00 0.19 0.00 81 1025.1
20230129102115 27 315 0.0 0.0 0.00 0.19 0.00 80 1025.3
20230129101214 28 315 0.0 0.0 0.00 0.19 0.00 79 1025.3
20230129100215 28 315 0.0 0.0 0.00 0.19 0.00 79 1025.4
20230129095313 28 315 0.0 0.0 0.00 0.19 0.00 78 1025.5
20230129094314 28 315 0.0 0.0 0.00 0.19 0.00 79 1025.7
20230129093314 29 315 0.0 0.0 0.00 0.19 0.00 77 1025.6
20230129093213 29 315 0.0 0.0 0.00 0.19 0.00 76 1025.6
20230129092312 29 315 0.0 0.0 0.00 0.19 0.00 77 1025.8
20230129091314 28 315 0.0 1.0 0.00 0.19 0.00 80 1025.9
20230129090314 28 315 0.0 1.0 0.00 0.19 0.00 79 1026.0
20230129084413 28 315 1.0 2.0 0.00 0.19 0.00 79 1026.1
20230129083512 28 315 3.0 3.0 0.00 0.19 0.00 80 1026.0
20230129082514 28 292 1.0 1.0 0.00 0.19 0.00 80 1026.0
20230129081613 28 292 1.0 1.0 0.00 0.19 0.00 80 1025.9
20230129080613 28 292 0.0 0.0 0.00 0.19 0.00 78 1025.7
20230129075615 28 292 2.0 2.0 0.00 0.19 0.00 80 1025.7